Time;durP1;ratioP1;P1;durP2;ratioP2;P2;SDS_P1;SDS_P2;PMS_P1;PMS_P2;Temp;Humidity;BMP_temperature;BMP_pressure;BME280_temperature;BME280_humidity;BME280_pressure;Samples;Min_cycle;Max_cycle;Signal;HPM_P1;HPM_P2
2021/03/06 00:00:26;;;;;;;7.60;1.95;;;1.00;95.40;;;;;;5043643;28;20491;-85
2021/03/06 00:02:52;;;;;;;4.80;1.58;;;1.00;95.40;;;;;;5030820;28;20491;-87
2021/03/06 00:05:19;;;;;;;3.88;1.63;;;1.00;95.50;;;;;;5027427;28;20048;-84
2021/03/06 00:07:46;;;;;;;4.72;1.20;;;0.90;95.50;;;;;;5029007;28;20053;-83
2021/03/06 00:10:13;;;;;;;5.75;1.60;;;0.90;95.60;;;;;;5042041;28;20041;-84
2021/03/06 00:12:43;;;;;;;3.25;1.38;;;0.80;95.60;;;;;;5031476;28;20045;-86
2021/03/06 00:15:11;;;;;;;2.35;1.08;;;0.80;95.70;;;;;;5029827;28;20491;-86
2021/03/06 00:17:37;;;;;;;5.32;2.15;;;0.70;95.70;;;;;;5037455;28;20039;-87
2021/03/06 00:20:04;;;;;;;3.25;1.33;;;0.70;95.80;;;;;;5030950;28;20115;-88
2021/03/06 00:22:30;;;;;;;3.90;1.50;;;0.70;95.90;;;;;;5049998;28;20087;-86
2021/03/06 00:24:56;;;;;;;4.32;1.50;;;0.60;95.90;;;;;;5041835;28;20675;-86
2021/03/06 00:27:21;;;;;;;3.63;1.40;;;0.60;96.00;;;;;;5041345;28;20029;-86
2021/03/06 00:29:47;;;;;;;3.92;1.70;;;0.60;96.00;;;;;;5055288;28;20584;-86
2021/03/06 00:32:13;;;;;;;6.22;1.30;;;0.60;96.10;;;;;;5047934;28;20123;-86
2021/03/06 00:34:38;;;;;;;4.90;1.80;;;0.50;96.10;;;;;;5043374;28;20522;-86
2021/03/06 00:37:04;;;;;;;3.97;1.67;;;0.50;96.20;;;;;;5022042;28;20033;-85
2021/03/06 00:39:30;;;;;;;3.03;1.30;;;0.50;96.20;;;;;;5036368;28;20423;-86
2021/03/06 00:41:55;;;;;;;4.18;1.40;;;0.50;96.20;;;;;;5033544;28;20037;-85
2021/03/06 00:44:21;;;;;;;3.55;1.30;;;0.50;96.30;;;;;;5034761;28;20037;-86
2021/03/06 00:46:47;;;;;;;3.25;1.20;;;0.50;96.40;;;;;;5035635;28;20034;-86
2021/03/06 00:49:18;;;;;;;3.97;1.10;;;0.50;96.40;;;;;;5035197;28;20025;-86
2021/03/06 00:51:44;;;;;;;4.32;1.42;;;0.50;96.40;;;;;;5038076;28;20034;-86
2021/03/06 00:54:09;;;;;;;3.55;1.27;;;0.40;96.40;;;;;;5036044;28;20449;-85
2021/03/06 00:56:35;;;;;;;3.63;1.20;;;0.40;96.50;;;;;;5037583;28;20071;-87
2021/03/06 00:59:01;;;;;;;4.80;1.80;;;0.40;96.60;;;;;;5038901;28;20036;-87
2021/03/06 01:01:26;;;;;;;4.15;1.38;;;0.30;96.70;;;;;;5039561;28;20029;-86
2021/03/06 01:03:52;;;;;;;4.32;1.27;;;0.40;96.80;;;;;;5039294;28;20530;-84
2021/03/06 01:06:18;;;;;;;3.40;1.42;;;0.40;96.80;;;;;;5043876;28;20041;-85
2021/03/06 01:08:43;;;;;;;3.13;1.27;;;0.30;96.80;;;;;;5029791;28;20085;-84
2021/03/06 01:11:09;;;;;;;3.40;1.20;;;0.30;96.80;;;;;;5039486;28;20069;-84
2021/03/06 01:13:35;;;;;;;2.90;1.20;;;0.30;96.80;;;;;;5042865;28;20045;-83
2021/03/06 01:16:00;;;;;;;4.70;1.58;;;0.30;96.80;;;;;;5040756;28;20037;-85
2021/03/06 01:18:26;;;;;;;3.33;1.00;;;0.30;96.80;;;;;;5032313;28;20032;-85
2021/03/06 01:20:51;;;;;;;2.60;1.20;;;0.20;96.80;;;;;;5040821;28;20064;-85
2021/03/06 01:23:17;;;;;;;5.82;1.15;;;0.20;96.80;;;;;;5044668;28;20053;-85
2021/03/06 01:25:43;;;;;;;2.95;1.10;;;0.20;96.90;;;;;;5038044;28;20080;-84
2021/03/06 01:28:09;;;;;;;3.53;1.00;;;0.10;96.90;;;;;;5038997;28;20049;-86
2021/03/06 01:30:35;;;;;;;4.90;1.13;;;0.10;96.90;;;;;;5034210;28;20064;-85
2021/03/06 01:33:01;;;;;;;6.05;1.30;;;0.10;97.00;;;;;;5040513;28;20044;-85
2021/03/06 01:35:27;;;;;;;3.72;1.30;;;0.10;97.00;;;;;;5039791;28;20032;-85
2021/03/06 01:37:53;;;;;;;4.15;1.45;;;0.00;97.00;;;;;;5038825;28;20137;-85
2021/03/06 01:40:25;;;;;;;4.38;1.35;;;0.00;97.10;;;;;;5037192;28;20037;-86
2021/03/06 01:42:52;;;;;;;4.38;1.10;;;0.00;97.10;;;;;;5022579;28;20041;-85
2021/03/06 01:45:18;;;;;;;2.28;0.90;;;-0.10;97.20;;;;;;5039528;28;20040;-84
2021/03/06 01:47:43;;;;;;;4.40;0.98;;;-0.10;97.20;;;;;;5040080;28;20045;-86
2021/03/06 01:50:10;;;;;;;3.85;1.10;;;-0.20;97.20;;;;;;5041791;28;20782;-85
2021/03/06 01:52:36;;;;;;;2.50;0.93;;;-0.20;97.20;;;;;;5037769;28;20037;-84
2021/03/06 01:55:04;;;;;;;3.10;1.13;;;-0.20;97.30;;;;;;5048575;28;20065;-86
2021/03/06 01:57:30;;;;;;;4.57;1.08;;;-0.20;97.40;;;;;;5036180;28;20041;-86
2021/03/06 01:59:56;;;;;;;6.97;1.60;;;-0.30;97.40;;;;;;5049322;28;20116;-86
2021/03/06 02:02:23;;;;;;;3.55;1.17;;;-0.30;97.40;;;;;;5051201;28;20090;-86
2021/03/06 02:04:48;;;;;;;4.50;1.20;;;-0.30;97.40;;;;;;5053725;28;20410;-85
2021/03/06 02:07:14;;;;;;;5.28;1.40;;;-0.30;97.50;;;;;;5054170;28;20060;-82
2021/03/06 02:09:40;;;;;;;4.07;1.10;;;-0.40;97.50;;;;;;5052675;28;20037;-84
2021/03/06 02:12:18;;;;;;;3.13;1.10;;;-0.40;97.50;;;;;;5052891;28;20110;-85
2021/03/06 02:15:02;;;;;;;2.00;0.90;;;-0.40;97.50;;;;;;5054571;28;20040;-84
2021/03/06 02:17:52;;;;;;;2.88;1.05;;;-0.40;97.50;;;;;;5053343;28;20040;-85
2021/03/06 02:20:36;;;;;;;5.68;1.33;;;-0.40;97.50;;;;;;5035460;28;20128;-85
2021/03/06 02:23:08;;;;;;;3.90;1.02;;;-0.40;97.50;;;;;;5041270;28;20398;-85
2021/03/06 02:26:09;;;;;;;3.90;1.00;;;-0.40;97.50;;;;;;5054412;28;20091;-84
2021/03/06 02:29:16;;;;;;;4.45;1.02;;;-0.40;97.50;;;;;;5054275;28;20382;-85
2021/03/06 02:31:43;;;;;;;3.25;1.15;;;-0.40;97.50;;;;;;5054388;28;20041;-85
2021/03/06 02:34:15;;;;;;;3.38;1.08;;;-0.50;97.50;;;;;;5052385;28;20080;-85
2021/03/06 02:36:48;;;;;;;2.83;1.05;;;-0.50;97.60;;;;;;5053972;28;20439;-85
2021/03/06 02:39:17;;;;;;;2.40;0.90;;;-0.50;97.70;;;;;;5052510;28;20124;-85
2021/03/06 02:41:45;;;;;;;2.75;1.10;;;-0.60;98.00;;;;;;5054222;28;20272;-84
2021/03/06 02:44:13;;;;;;;4.32;1.35;;;-0.60;97.80;;;;;;5052929;28;20037;-85
2021/03/06 02:46:39;;;;;;;6.15;1.17;;;-0.60;97.80;;;;;;5054124;28;20033;-85
2021/03/06 02:49:05;;;;;;;3.33;0.93;;;-0.70;97.90;;;;;;5052268;28;20029;-85
2021/03/06 02:51:42;;;;;;;3.17;1.33;;;-0.70;97.90;;;;;;5046897;28;20048;-84
2021/03/06 02:54:09;;;;;;;3.95;1.23;;;-0.70;97.90;;;;;;5042571;28;20049;-84
2021/03/06 02:56:36;;;;;;;3.55;0.98;;;-0.70;98.10;;;;;;5039917;28;20104;-85
2021/03/06 02:59:17;;;;;;;7.05;1.35;;;-0.70;98.10;;;;;;5043917;28;20032;-86
2021/03/06 03:02:13;;;;;;;5.53;1.42;;;-0.70;98.10;;;;;;5044111;28;20047;-86
2021/03/06 03:04:45;;;;;;;2.58;1.02;;;-0.70;98.10;;;;;;5042557;28;20057;-85
2021/03/06 03:07:35;;;;;;;5.75;0.93;;;-0.70;98.00;;;;;;5041026;28;20045;-85
2021/03/06 03:10:08;;;;;;;5.22;0.88;;;-0.70;98.10;;;;;;5043127;28;20479;-85
2021/03/06 03:12:47;;;;;;;4.05;1.20;;;-0.70;98.10;;;;;;5040554;28;20038;-85
2021/03/06 03:15:19;;;;;;;5.28;1.55;;;-0.70;98.10;;;;;;5042565;28;20039;-85
2021/03/06 03:17:51;;;;;;;5.03;1.20;;;-0.70;98.20;;;;;;5039672;28;20033;-85
2021/03/06 03:20:42;;;;;;;1.95;0.90;;;-0.90;98.20;;;;;;5014555;28;20541;-83
2021/03/06 03:23:28;;;;;;;4.28;1.00;;;-0.90;98.30;;;;;;5031463;28;20049;-84
2021/03/06 03:26:00;;;;;;;3.75;1.05;;;-0.90;98.30;;;;;;5031274;28;20372;-83
2021/03/06 03:28:28;;;;;;;2.83;1.00;;;-0.90;98.40;;;;;;5030568;28;20659;-85
2021/03/06 03:30:59;;;;;;;4.07;1.05;;;-0.90;98.40;;;;;;5015125;28;20075;-84
2021/03/06 03:33:26;;;;;;;3.35;1.40;;;-0.90;98.40;;;;;;5015129;28;20057;-85
2021/03/06 03:35:53;;;;;;;4.22;1.30;;;-0.90;98.60;;;;;;5030814;28;20029;-84
2021/03/06 03:38:19;;;;;;;5.63;1.10;;;-0.90;98.70;;;;;;5031234;28;20037;-84
2021/03/06 03:40:45;;;;;;;1.83;1.13;;;-0.90;98.70;;;;;;5015566;28;20041;-85
2021/03/06 03:43:12;;;;;;;3.67;1.10;;;-0.90;98.70;;;;;;5031811;28;20041;-84
2021/03/06 03:45:38;;;;;;;3.35;1.08;;;-0.90;98.70;;;;;;5032793;28;20535;-84
2021/03/06 03:48:04;;;;;;;3.05;0.80;;;-1.00;98.70;;;;;;5031703;28;20029;-84
2021/03/06 03:50:30;;;;;;;1.63;0.75;;;-1.00;98.70;;;;;;5032409;28;20041;-85
2021/03/06 03:52:57;;;;;;;5.88;1.13;;;-1.00;98.70;;;;;;5032773;28;20064;-84
2021/03/06 03:55:24;;;;;;;2.22;0.85;;;-1.00;98.70;;;;;;5032759;28;20479;-84
2021/03/06 03:57:50;;;;;;;3.03;1.27;;;-1.00;98.80;;;;;;5031270;28;20025;-85
2021/03/06 04:00:20;;;;;;;2.60;0.93;;;-1.10;98.90;;;;;;5032790;28;20029;-84
2021/03/06 04:02:49;;;;;;;4.00;1.20;;;-1.20;98.90;;;;;;5031336;28;20034;-85
2021/03/06 04:05:15;;;;;;;2.42;1.10;;;-1.10;99.00;;;;;;5031268;28;20387;-86
2021/03/06 04:07:49;;;;;;;2.92;0.93;;;-1.20;98.90;;;;;;5014381;28;20042;-85
2021/03/06 04:10:17;;;;;;;2.83;1.20;;;-1.20;99.00;;;;;;5031216;28;20503;-85
2021/03/06 04:12:43;;;;;;;3.65;1.42;;;-1.20;99.00;;;;;;5031185;28;20506;-85
2021/03/06 04:15:10;;;;;;;2.63;1.08;;;-1.30;99.00;;;;;;5032713;28;20033;-84
2021/03/06 04:17:37;;;;;;;3.22;1.10;;;-1.30;99.10;;;;;;5014743;28;20148;-85
2021/03/06 04:20:04;;;;;;;2.47;1.10;;;-1.30;99.10;;;;;;5032354;28;20037;-86
2021/03/06 04:22:29;;;;;;;3.22;1.25;;;-1.30;99.10;;;;;;5031870;28;20045;-85
2021/03/06 04:24:55;;;;;;;3.17;1.30;;;-1.30;99.20;;;;;;5032505;28;20045;-85
2021/03/06 04:27:21;;;;;;;3.15;1.00;;;-1.40;99.20;;;;;;5030969;28;20030;-85
2021/03/06 04:29:46;;;;;;;2.65;1.00;;;-1.40;99.30;;;;;;5032102;28;20049;-85
2021/03/06 04:32:12;;;;;;;4.75;1.20;;;-1.40;99.30;;;;;;5014603;28;20391;-85
2021/03/06 04:34:37;;;;;;;3.50;1.40;;;-1.40;99.30;;;;;;5030934;28;20132;-85
2021/03/06 04:37:03;;;;;;;3.00;1.55;;;-1.50;99.40;;;;;;5036371;28;20034;-85
2021/03/06 04:39:29;;;;;;;4.68;1.23;;;-1.50;99.40;;;;;;5036363;28;20049;-84
2021/03/06 04:41:55;;;;;;;2.40;1.13;;;-1.50;99.40;;;;;;5034954;28;20040;-85
2021/03/06 04:44:21;;;;;;;4.10;1.35;;;-1.50;99.50;;;;;;5034780;28;20029;-84
2021/03/06 04:46:47;;;;;;;2.75;0.90;;;-1.50;99.50;;;;;;5035969;28;20042;-85
2021/03/06 04:49:12;;;;;;;3.80;1.30;;;-1.50;99.60;;;;;;5035945;28;20067;-86
2021/03/06 04:51:38;;;;;;;1.70;0.90;;;-1.50;99.60;;;;;;5036219;28;20072;-85
2021/03/06 04:54:04;;;;;;;4.93;1.15;;;-1.50;99.50;;;;;;5018213;28;20084;-84
2021/03/06 04:56:29;;;;;;;4.22;1.20;;;-1.50;99.50;;;;;;5034385;28;20491;-85
2021/03/06 04:58:55;;;;;;;5.30;1.17;;;-1.50;99.60;;;;;;5034466;28;20040;-85
2021/03/06 05:01:20;;;;;;;1.75;1.10;;;-1.50;99.60;;;;;;5034815;28;20034;-85
2021/03/06 05:03:46;;;;;;;3.97;1.52;;;-1.60;99.70;;;;;;5034428;28;20030;-85
2021/03/06 05:06:12;;;;;;;4.47;1.30;;;-1.60;99.70;;;;;;5035547;28;20072;-85
2021/03/06 05:08:39;;;;;;;1.92;1.02;;;-1.60;99.70;;;;;;5035284;28;20049;-85
2021/03/06 05:11:06;;;;;;;4.45;1.30;;;-1.60;99.70;;;;;;5035795;28;20077;-84
2021/03/06 05:13:31;;;;;;;2.53;1.08;;;-1.60;99.70;;;;;;5035559;28;20041;-85
2021/03/06 05:15:57;;;;;;;3.45;1.35;;;-1.60;99.70;;;;;;5035470;28;20037;-85
2021/03/06 05:18:23;;;;;;;2.05;1.35;;;-1.60;99.70;;;;;;5033910;28;20041;-85
2021/03/06 05:20:48;;;;;;;5.40;1.48;;;-1.70;99.70;;;;;;5035563;28;20093;-85
2021/03/06 05:23:14;;;;;;;2.95;1.35;;;-1.70;99.80;;;;;;5034226;28;20108;-85
2021/03/06 05:25:40;;;;;;;3.92;1.48;;;-1.70;99.80;;;;;;5046720;28;20039;-83
2021/03/06 05:28:05;;;;;;;3.83;1.23;;;-1.70;99.90;;;;;;5064910;28;20029;-83
2021/03/06 05:30:31;;;;;;;4.45;1.58;;;-1.70;99.90;;;;;;5054035;28;20032;-83
2021/03/06 05:32:56;;;;;;;4.18;1.50;;;-1.70;99.90;;;;;;5055406;28;20116;-83
2021/03/06 05:35:22;;;;;;;3.25;1.50;;;-1.70;99.90;;;;;;5053571;28;20040;-83
2021/03/06 05:37:47;;;;;;;2.15;1.20;;;-1.80;99.90;;;;;;5055510;28;20092;-83
2021/03/06 05:40:13;;;;;;;6.18;1.48;;;-1.80;99.90;;;;;;5054386;28;20096;-83
2021/03/06 05:42:39;;;;;;;4.55;1.38;;;-1.80;99.90;;;;;;5053274;28;20029;-84
2021/03/06 05:45:07;;;;;;;7.07;1.17;;;-1.80;99.90;;;;;;5054106;28;20542;-85
2021/03/06 05:47:33;;;;;;;4.32;1.10;;;-1.70;99.90;;;;;;5052352;28;20037;-85
2021/03/06 05:50:01;;;;;;;5.10;1.48;;;-1.70;99.90;;;;;;5053798;28;20032;-84
2021/03/06 05:52:28;;;;;;;3.03;1.10;;;-1.70;99.90;;;;;;5054794;28;20037;-84
2021/03/06 05:54:55;;;;;;;4.45;1.40;;;-1.70;99.90;;;;;;5053381;28;20025;-83
2021/03/06 05:57:21;;;;;;;4.43;1.45;;;-1.70;99.90;;;;;;5054263;28;20029;-85
2021/03/06 05:59:48;;;;;;;2.15;1.10;;;-1.80;99.90;;;;;;5053016;28;20566;-83
2021/03/06 06:02:18;;;;;;;4.68;1.33;;;-1.80;99.90;;;;;;5053239;28;20549;-83
2021/03/06 06:04:46;;;;;;;2.78;1.15;;;-1.80;99.90;;;;;;5053398;28;20029;-84
2021/03/06 06:07:18;;;;;;;2.78;1.30;;;-1.80;99.90;;;;;;5053016;28;20068;-83
2021/03/06 06:09:44;;;;;;;5.03;1.58;;;-1.80;99.90;;;;;;5053144;28;20036;-83
2021/03/06 06:12:10;;;;;;;4.43;1.33;;;-1.70;99.90;;;;;;5053222;28;20041;-84
2021/03/06 06:14:37;;;;;;;4.95;1.63;;;-1.70;99.90;;;;;;5054228;28;20072;-85
2021/03/06 06:17:07;;;;;;;5.10;1.40;;;-1.80;99.90;;;;;;5052988;28;20491;-83
2021/03/06 06:19:35;;;;;;;3.28;1.27;;;-1.80;99.90;;;;;;5054035;28;20033;-85
2021/03/06 06:22:02;;;;;;;3.30;1.60;;;-1.80;99.90;;;;;;5053095;28;20095;-85
2021/03/06 06:24:28;;;;;;;5.05;1.50;;;-1.80;99.90;;;;;;5053121;28;20031;-84
2021/03/06 06:26:59;;;;;;;3.90;1.95;;;-1.70;99.90;;;;;;5054142;28;20029;-84
2021/03/06 06:29:48;;;;;;;3.20;1.30;;;-1.70;99.90;;;;;;5052717;28;20029;-83
2021/03/06 06:32:15;;;;;;;3.42;1.20;;;-1.70;99.90;;;;;;5052874;28;20064;-84
2021/03/06 06:34:55;;;;;;;2.95;1.38;;;-1.60;99.90;;;;;;5054151;28;20049;-83
2021/03/06 06:37:21;;;;;;;4.38;1.65;;;-1.60;99.90;;;;;;5052730;28;20036;-83
2021/03/06 06:39:47;;;;;;;5.07;1.80;;;-1.60;99.90;;;;;;5053954;28;20041;-83
2021/03/06 06:42:13;;;;;;;5.18;1.95;;;-1.60;99.90;;;;;;5052506;28;20033;-82
2021/03/06 06:44:39;;;;;;;6.35;1.50;;;-1.60;99.90;;;;;;5052313;28;20502;-84
2021/03/06 06:47:12;;;;;;;3.30;1.52;;;-1.60;99.90;;;;;;5053971;28;20090;-84
2021/03/06 06:49:48;;;;;;;4.25;1.60;;;-1.50;99.90;;;;;;5052321;28;20065;-84
2021/03/06 06:52:15;;;;;;;6.32;1.70;;;-1.50;99.90;;;;;;5052480;28;20061;-84
2021/03/06 06:54:49;;;;;;;3.83;1.50;;;-1.40;99.90;;;;;;5052248;28;20084;-84
2021/03/06 06:57:16;;;;;;;3.97;1.42;;;-1.40;99.90;;;;;;5053447;28;20035;-85
2021/03/06 07:00:18;;;;;;;4.50;1.45;;;-1.40;99.90;;;;;;5052382;28;20581;-84
2021/03/06 07:02:56;;;;;;;4.10;1.67;;;-1.30;99.90;;;;;;4971794;28;20043;-85
2021/03/06 07:05:28;;;;;;;3.45;1.52;;;-1.30;99.90;;;;;;5043820;28;20031;-84
2021/03/06 07:07:53;;;;;;;2.78;1.30;;;-1.20;99.90;;;;;;5052185;28;20478;-85
2021/03/06 07:10:21;;;;;;;5.03;1.50;;;-1.20;99.90;;;;;;5053528;28;20049;-85
2021/03/06 07:13:10;;;;;;;4.85;1.80;;;-1.10;99.90;;;;;;5049698;28;20037;-86
2021/03/06 07:15:36;;;;;;;3.20;1.20;;;-1.10;99.90;;;;;;5042648;28;20112;-84
2021/03/06 07:18:08;;;;;;;2.78;1.30;;;-1.00;99.90;;;;;;5040832;28;20148;-85
2021/03/06 07:20:36;;;;;;;3.50;1.40;;;-1.00;99.90;;;;;;5040037;28;20044;-85
2021/03/06 07:23:26;;;;;;;3.88;1.38;;;-0.90;99.90;;;;;;5035090;28;20036;-85
2021/03/06 07:25:52;;;;;;;4.43;1.30;;;-0.80;99.90;;;;;;5040348;28;20233;-83
2021/03/06 07:28:19;;;;;;;4.00;1.33;;;-0.70;99.90;;;;;;5040763;28;20033;-83
2021/03/06 07:30:45;;;;;;;5.72;1.30;;;-0.60;99.90;;;;;;5041487;28;20045;-85
2021/03/06 07:33:16;;;;;;;3.28;1.48;;;-0.50;99.90;;;;;;5029475;28;20041;-88
2021/03/06 07:35:42;;;;;;;4.05;2.00;;;-0.40;99.90;;;;;;5043830;28;20542;-85
2021/03/06 07:38:10;;;;;;;5.25;1.60;;;-0.30;99.90;;;;;;5047375;28;20036;-88
2021/03/06 07:40:47;;;;;;;2.72;1.33;;;-0.10;99.90;;;;;;5037618;28;20036;-85
2021/03/06 07:43:27;;;;;;;3.70;1.48;;;0.00;99.90;;;;;;5043802;28;21148;-86
2021/03/06 07:45:53;;;;;;;3.03;1.50;;;0.30;99.90;;;;;;5036566;28;20446;-87
2021/03/06 07:48:23;;;;;;;3.22;1.45;;;0.40;99.90;;;;;;5050779;28;20037;-86
2021/03/06 07:50:52;;;;;;;3.45;1.55;;;0.60;99.90;;;;;;5051856;28;20036;-86
2021/03/06 07:53:19;;;;;;;4.55;1.67;;;0.80;99.90;;;;;;5041604;28;20043;-88
2021/03/06 07:55:46;;;;;;;2.35;1.30;;;0.90;99.80;;;;;;5050578;28;20053;-87
2021/03/06 07:58:14;;;;;;;5.32;1.50;;;0.90;99.70;;;;;;5050094;28;20573;-88
2021/03/06 08:00:53;;;;;;;3.30;1.13;;;1.00;99.60;;;;;;5051856;28;20032;-88
2021/03/06 08:03:33;;;;;;;3.60;1.40;;;1.20;99.60;;;;;;5052329;28;20044;-89
2021/03/06 08:06:34;;;;;;;4.05;1.77;;;1.40;99.50;;;;;;5052446;28;20041;-89
2021/03/06 08:09:02;;;;;;;3.92;1.27;;;1.60;99.40;;;;;;4972503;28;20138;-88
2021/03/06 08:11:34;;;;;;;6.90;1.92;;;1.80;99.30;;;;;;5038218;28;20045;-87
2021/03/06 08:14:06;;;;;;;5.40;1.75;;;1.80;99.10;;;;;;5035825;28;20052;-88
2021/03/06 08:16:32;;;;;;;4.07;1.52;;;1.90;99.10;;;;;;5051830;28;20028;-86
2021/03/06 08:18:59;;;;;;;7.78;2.03;;;1.90;99.00;;;;;;5033929;28;20095;-89
2021/03/06 08:21:32;;;;;;;8.30;1.20;;;1.90;99.10;;;;;;5051956;28;20112;-87
2021/03/06 08:26:54;;;;;;;;;;;1.90;99.30;;;;;;5053505;28;20441;-88
2021/03/06 08:29:23;;;;;;;4.32;1.80;;;1.90;99.10;;;;;;5057341;28;20360;-88
2021/03/06 08:32:07;;;;;;;4.03;1.40;;;2.00;99.00;;;;;;5034924;28;20449;-89
2021/03/06 08:34:47;;;;;;;3.78;1.40;;;2.00;99.00;;;;;;5050971;28;20044;-86
2021/03/06 08:37:14;;;;;;;5.43;1.50;;;2.10;99.00;;;;;;5027789;28;20041;-89
2021/03/06 08:39:45;;;;;;;3.13;1.38;;;2.20;99.00;;;;;;5051476;28;20048;-87
2021/03/06 08:42:12;;;;;;;6.72;1.42;;;2.30;99.00;;;;;;5025630;28;20060;-88
2021/03/06 08:44:39;;;;;;;7.18;1.38;;;2.30;99.00;;;;;;5048518;28;20044;-88
2021/03/06 08:47:07;;;;;;;4.80;1.35;;;2.40;99.00;;;;;;5047516;28;20039;-90
2021/03/06 08:49:34;;;;;;;3.05;1.25;;;2.50;99.00;;;;;;5051143;28;20107;-88
2021/03/06 08:51:59;;;;;;;4.75;1.42;;;2.60;99.00;;;;;;5040513;28;20033;-90
2021/03/06 08:54:25;;;;;;;5.15;2.17;;;2.70;98.90;;;;;;5051814;28;20045;-89
2021/03/06 08:56:53;;;;;;;6.78;1.40;;;2.70;98.90;;;;;;5052190;28;20048;-90
2021/03/06 08:59:37;;;;;;;4.65;1.10;;;2.80;99.30;;;;;;5050824;28;20029;-89
2021/03/06 09:02:27;;;;;;;3.47;1.25;;;2.90;98.90;;;;;;5045761;28;20034;-88
2021/03/06 09:05:21;;;;;;;4.60;1.00;;;2.90;98.90;;;;;;5029221;28;20053;-87
2021/03/06 09:07:52;;;;;;;3.47;1.15;;;3.00;98.80;;;;;;5037333;28;20045;-89
2021/03/06 09:10:21;;;;;;;3.00;0.65;;;3.10;98.80;;;;;;5040954;28;20037;-86
2021/03/06 09:12:50;;;;;;;4.13;0.80;;;3.20;98.70;;;;;;5030526;28;20044;-88
2021/03/06 09:15:34;;;;;;;3.85;1.00;;;3.30;98.70;;;;;;5029683;28;20030;-90
2021/03/06 09:18:00;;;;;;;;;;;3.40;98.70;;;;;;5028408;28;20132;-88
2021/03/06 09:20:28;;;;;;;3.13;0.85;;;3.50;98.60;;;;;;5029415;28;19971;-87
2021/03/06 09:22:54;;;;;;;5.38;1.17;;;3.60;98.50;;;;;;5033824;28;20095;-88
2021/03/06 09:25:32;;;;;;;4.65;1.27;;;3.70;98.50;;;;;;5034414;28;20082;-88
2021/03/06 09:27:58;;;;;;;3.72;1.10;;;3.90;98.30;;;;;;5034178;28;20037;-88
2021/03/06 09:30:29;;;;;;;4.88;1.13;;;4.00;98.30;;;;;;5034884;28;20025;-87
2021/03/06 09:32:55;;;;;;;6.25;1.50;;;4.20;98.20;;;;;;5027144;28;20752;-90
2021/03/06 09:35:22;;;;;;;8.75;2.10;;;4.40;98.50;;;;;;5055714;28;20033;-90
2021/03/06 09:38:06;;;;;;;5.53;1.40;;;4.80;98.90;;;;;;5054969;28;20036;-90
2021/03/06 09:40:39;;;;;;;6.82;1.58;;;6.00;98.70;;;;;;5054964;28;20041;-90
2021/03/06 09:43:05;;;;;;;3.17;1.25;;;7.20;97.70;;;;;;5054984;28;20021;-91
2021/03/06 09:45:31;;;;;;;4.00;1.10;;;8.30;96.90;;;;;;5054537;28;20030;-89
2021/03/06 09:48:05;;;;;;;2.25;0.90;;;9.30;95.20;;;;;;5054593;28;20040;-90
2021/03/06 09:50:31;;;;;;;5.07;1.10;;;9.30;93.80;;;;;;5055747;28;20047;-90
2021/03/06 09:52:57;;;;;;;4.53;0.90;;;8.70;93.80;;;;;;5054664;28;20132;-89
2021/03/06 09:55:23;;;;;;;3.40;0.70;;;8.00;93.60;;;;;;5038346;28;20542;-89
2021/03/06 09:57:48;;;;;;;2.53;0.73;;;7.40;94.10;;;;;;5038108;28;20033;-89
2021/03/06 10:00:22;;;;;;;3.28;0.90;;;7.10;94.60;;;;;;5054884;28;20116;-89
2021/03/06 10:02:50;;;;;;;3.50;0.75;;;6.70;94.70;;;;;;5056152;28;20603;-87
2021/03/06 10:05:20;;;;;;;3.58;0.80;;;6.50;95.00;;;;;;5054495;28;20087;-87
2021/03/06 10:07:47;;;;;;;3.20;0.90;;;6.30;95.00;;;;;;5054195;28;20060;-89
2021/03/06 10:10:13;;;;;;;3.28;0.82;;;6.20;95.00;;;;;;5054292;28;20485;-87
2021/03/06 10:12:43;;;;;;;5.13;1.10;;;6.00;95.30;;;;;;5054199;28;20565;-87
2021/03/06 10:15:11;;;;;;;7.80;1.30;;;5.90;95.00;;;;;;5054470;28;20033;-88
2021/03/06 10:17:37;;;;;;;4.82;1.42;;;5.80;95.00;;;;;;5053934;28;20032;-88
2021/03/06 10:20:03;;;;;;;2.47;0.70;;;5.70;95.00;;;;;;5054667;28;20489;-86
2021/03/06 10:22:29;;;;;;;3.53;0.80;;;5.70;94.60;;;;;;5054588;28;20128;-87
2021/03/06 10:25:04;;;;;;;2.97;0.40;;;5.60;94.00;;;;;;5054604;28;20114;-88
2021/03/06 10:27:36;;;;;;;2.55;0.63;;;5.50;93.10;;;;;;5055618;28;20037;-90
2021/03/06 10:30:12;;;;;;;3.83;0.90;;;5.40;93.20;;;;;;5054549;28;20100;-87
2021/03/06 10:32:42;;;;;;;1.55;0.32;;;5.40;93.20;;;;;;5053558;28;20126;-87
2021/03/06 10:35:27;;;;;;;3.13;0.50;;;5.40;92.80;;;;;;5037178;28;20517;-88
2021/03/06 10:37:53;;;;;;;3.95;0.95;;;5.40;92.50;;;;;;5055147;28;20083;-88
2021/03/06 10:40:19;;;;;;;3.03;0.68;;;5.40;92.80;;;;;;5036906;28;20033;-88
2021/03/06 10:42:50;;;;;;;2.45;0.70;;;5.50;93.00;;;;;;5053543;28;20456;-86
2021/03/06 10:45:29;;;;;;;1.67;0.70;;;5.60;93.10;;;;;;5055331;28;20029;-88
2021/03/06 10:48:01;;;;;;;4.88;0.60;;;5.60;93.20;;;;;;5054840;28;20083;-89
2021/03/06 10:50:32;;;;;;;3.58;0.85;;;5.70;93.10;;;;;;5049959;28;20068;-88
2021/03/06 10:53:20;;;;;;;4.53;0.68;;;5.80;93.10;;;;;;5040171;28;20130;-88
2021/03/06 10:55:48;;;;;;;1.67;0.40;;;5.90;93.00;;;;;;5034762;28;20103;-90
2021/03/06 10:58:14;;;;;;;3.33;0.80;;;6.00;92.70;;;;;;5032282;28;20052;-89
2021/03/06 11:00:41;;;;;;;1.08;0.43;;;6.30;92.60;;;;;;5031957;28;20053;-86
2021/03/06 11:03:09;;;;;;;1.83;0.65;;;6.80;92.40;;;;;;5031524;28;20128;-88
2021/03/06 11:05:35;;;;;;;3.83;0.55;;;7.10;91.60;;;;;;5031200;28;20033;-87
2021/03/06 11:08:17;;;;;;;5.25;1.05;;;8.40;91.70;;;;;;5013625;28;20722;-88
2021/03/06 11:10:46;;;;;;;3.47;0.60;;;10.00;87.50;;;;;;5030506;28;20033;-85
2021/03/06 11:13:12;;;;;;;2.47;0.60;;;11.30;86.10;;;;;;5031369;28;20141;-88
2021/03/06 11:15:48;;;;;;;1.65;0.60;;;12.30;79.50;;;;;;5030672;28;20121;-89
2021/03/06 11:18:14;;;;;;;1.88;0.50;;;13.20;78.30;;;;;;5039241;28;20091;-90
2021/03/06 11:20:41;;;;;;;2.40;0.70;;;13.90;77.30;;;;;;5035164;28;20388;-88
2021/03/06 11:23:07;;;;;;;3.50;0.80;;;14.30;70.30;;;;;;5048718;28;20037;-92
2021/03/06 11:25:33;;;;;;;2.42;0.60;;;14.60;68.50;;;;;;5050279;28;20036;-91
2021/03/06 11:28:02;;;;;;;3.08;0.63;;;14.80;67.80;;;;;;5050900;28;20474;-90
2021/03/06 11:30:31;;;;;;;2.38;0.60;;;15.10;66.40;;;;;;5052051;28;20024;-89
2021/03/06 11:32:57;;;;;;;3.20;0.80;;;15.40;66.70;;;;;;5051981;28;20084;-86
2021/03/06 11:35:24;;;;;;;1.60;0.60;;;15.90;65.30;;;;;;5051760;28;20108;-88
2021/03/06 11:37:50;;;;;;;1.50;0.40;;;16.10;63.10;;;;;;5050355;28;20045;-87
2021/03/06 11:40:19;;;;;;;1.73;0.52;;;16.20;62.60;;;;;;5043982;28;20075;-89
2021/03/06 11:42:45;;;;;;;2.28;0.45;;;16.30;62.30;;;;;;5040314;28;20041;-88
2021/03/06 11:45:12;;;;;;;2.05;0.63;;;16.60;60.20;;;;;;5042186;28;20103;-89
2021/03/06 11:47:38;;;;;;;2.78;0.95;;;16.80;58.40;;;;;;5038880;28;20021;-89
2021/03/06 11:50:08;;;;;;;1.90;0.57;;;16.80;57.50;;;;;;5042760;28;20025;-89
2021/03/06 11:52:34;;;;;;;1.75;0.57;;;16.70;57.40;;;;;;5048812;28;20146;-89
2021/03/06 11:55:00;;;;;;;1.60;0.40;;;16.90;57.40;;;;;;5044360;28;20513;-92
2021/03/06 11:57:26;;;;;;;2.58;0.60;;;17.20;57.10;;;;;;5049519;28;20124;-91
2021/03/06 11:59:53;;;;;;;1.15;0.40;;;17.30;56.50;;;;;;5048830;28;20072;-92
2021/03/06 12:02:19;;;;;;;2.65;0.50;;;17.40;56.70;;;;;;5041551;28;20021;-90
2021/03/06 12:04:59;;;;;;;2.08;0.50;;;17.50;55.30;;;;;;5145204;27;20721;-91
2021/03/06 12:07:25;;;;;;;2.33;0.70;;;17.50;54.90;;;;;;5110192;28;20020;-91
2021/03/06 12:09:50;;;;;;;1.08;0.40;;;17.50;54.80;;;;;;5109887;28;20198;-88
2021/03/06 12:12:16;;;;;;;2.30;0.60;;;17.50;54.80;;;;;;5106856;28;20699;-88
2021/03/06 12:14:42;;;;;;;1.98;0.60;;;17.30;54.40;;;;;;5108938;28;20023;-87
2021/03/06 12:17:08;;;;;;;1.48;0.40;;;16.70;55.10;;;;;;5110065;28;20023;-92
2021/03/06 12:19:33;;;;;;;2.10;0.40;;;16.40;54.90;;;;;;5111521;28;20550;-90
2021/03/06 12:21:59;;;;;;;4.40;0.65;;;16.70;55.20;;;;;;5108722;28;20024;-88
2021/03/06 12:24:25;;;;;;;0.65;0.40;;;17.00;53.60;;;;;;5108879;28;20023;-89
2021/03/06 12:26:54;;;;;;;2.03;0.52;;;17.40;53.70;;;;;;5109983;28;20255;-90
2021/03/06 12:29:19;;;;;;;1.38;0.52;;;17.50;53.10;;;;;;5109895;28;20024;-91
2021/03/06 12:31:45;;;;;;;1.73;0.50;;;17.70;51.90;;;;;;5109595;28;20377;-88
2021/03/06 12:34:11;;;;;;;2.20;0.60;;;17.50;52.40;;;;;;5093328;28;20388;-92
2021/03/06 12:36:37;;;;;;;2.33;0.70;;;16.90;52.80;;;;;;5112123;28;20024;-91
2021/03/06 12:39:04;;;;;;;2.40;0.70;;;16.80;53.80;;;;;;5112463;28;20377;-93
2021/03/06 12:41:30;;;;;;;3.00;0.77;;;16.90;53.80;;;;;;5109449;28;20027;-93
2021/03/06 12:43:58;;;;;;;3.47;0.93;;;17.40;53.40;;;;;;5114223;28;20040;-90
2021/03/06 12:46:24;;;;;;;2.53;0.50;;;17.80;52.70;;;;;;5119694;28;20032;-92
2021/03/06 12:48:50;;;;;;;2.10;0.70;;;18.00;52.30;;;;;;5115192;28;20040;-92
2021/03/06 12:51:17;;;;;;;2.22;0.75;;;18.20;50.10;;;;;;5113890;28;20024;-91
2021/03/06 12:53:43;;;;;;;1.35;0.50;;;18.40;49.40;;;;;;5109737;28;20019;-89
2021/03/06 12:56:08;;;;;;;1.25;0.40;;;18.60;50.50;;;;;;5109601;28;20028;-90
2021/03/06 12:58:40;;;;;;;1.85;0.75;;;18.90;50.20;;;;;;5120435;28;20019;-94
2021/03/06 13:01:06;;;;;;;2.15;0.60;;;19.20;49.40;;;;;;5090677;28;20115;-89
2021/03/06 13:03:32;;;;;;;1.95;0.70;;;19.60;49.40;;;;;;5088306;28;20179;-91